createdAt,value
2017-11-27T00:00:03.684Z,0.52
2017-11-27T00:00:07.852Z,0.52
2017-11-27T00:00:12.222Z,0.5
2017-11-27T00:00:16.624Z,0.52
2017-11-27T00:00:20.787Z,0.52
2017-11-27T00:00:25.042Z,0.52
2017-11-27T00:00:29.430Z,0.52
2017-11-27T00:00:33.698Z,0.51
2017-11-27T00:00:37.856Z,0.52
2017-11-27T00:00:41.796Z,0.52
2017-11-27T00:00:46.054Z,0.52
2017-11-27T00:00:50.429Z,0.51
2017-11-27T00:00:54.598Z,0.52
2017-11-27T00:00:58.883Z,0.52
2017-11-27T00:01:03.154Z,0.52
2017-11-27T00:01:07.429Z,0.52
2017-11-27T00:01:11.701Z,0.52
2017-11-27T00:01:15.962Z,0.52
2017-11-27T00:01:20.321Z,0.52
2017-11-27T00:01:24.361Z,0.51
2017-11-27T00:01:28.517Z,0.51
2017-11-27T00:01:32.897Z,0.51
2017-11-27T00:01:37.063Z,0.51
2017-11-27T00:01:41.472Z,0.51
2017-11-27T00:01:45.739Z,0.51
2017-11-27T00:01:50.114Z,0.52
2017-11-27T00:01:54.537Z,0.51
2017-11-27T00:01:58.806Z,0.52
2017-11-27T00:02:03.158Z,0.51
2017-11-27T00:02:07.426Z,0.53
2017-11-27T00:02:11.562Z,0.51
2017-11-27T00:02:15.723Z,0.52
2017-11-27T00:02:20.006Z,0.52
2017-11-27T00:02:24.274Z,0.52
2017-11-27T00:02:28.429Z,0.52
2017-11-27T00:02:32.800Z,0.52
2017-11-27T00:02:37.181Z,0.52
2017-11-27T00:02:41.454Z,0.53
2017-11-27T00:02:45.861Z,0.52
2017-11-27T00:02:50.126Z,0.5
2017-11-27T00:02:54.270Z,0.52
2017-11-27T00:02:58.546Z,0.52
2017-11-27T00:03:02.718Z,0.52
2017-11-27T00:03:07.081Z,0.51
2017-11-27T00:03:11.464Z,0.51
2017-11-27T00:03:15.854Z,0.51
2017-11-27T00:03:20.231Z,0.5
2017-11-27T00:03:24.508Z,0.51
2017-11-27T00:03:28.920Z,0.52
2017-11-27T00:03:33.289Z,0.51
2017-11-27T00:03:37.557Z,0.52
2017-11-27T00:03:41.596Z,0.51
2017-11-27T00:03:45.842Z,0.52
2017-11-27T00:04:22.099Z,0.51
2017-11-27T00:04:26.377Z,0.52
2017-11-27T00:04:30.641Z,0.52
2017-11-27T00:04:34.914Z,0.52
2017-11-27T00:04:39.302Z,0.52
2017-11-27T00:04:43.677Z,0.52
2017-11-27T00:04:47.940Z,0.52
2017-11-27T00:04:52.107Z,0.52
2017-11-27T00:04:56.469Z,0.52
2017-11-27T00:05:00.620Z,0.52
2017-11-27T00:05:05.019Z,0.52
2017-11-27T00:05:09.334Z,0.52
2017-11-27T00:05:13.375Z,0.52
2017-11-27T00:05:17.693Z,0.52
2017-11-27T00:05:21.734Z,0.51
2017-11-27T00:05:25.774Z,0.51
2017-11-27T00:05:30.038Z,0.53
2017-11-27T00:05:34.303Z,0.52
2017-11-27T00:05:38.482Z,0.52
2017-11-27T00:05:42.889Z,0.52
2017-11-27T00:05:47.139Z,0.51
2017-11-27T00:05:51.389Z,0.52
2017-11-27T00:05:55.677Z,0.51
2017-11-27T00:05:59.946Z,0.52
2017-11-27T00:06:04.694Z,0.52
2017-11-27T00:06:08.647Z,0.51
2017-11-27T00:06:13.036Z,0.52
2017-11-27T00:06:17.432Z,0.51
2017-11-27T00:06:21.721Z,0.51
2017-11-27T00:06:25.898Z,0.51
2017-11-27T00:06:30.099Z,0.51
2017-11-27T00:06:34.282Z,0.53
2017-11-27T00:06:38.537Z,0.52
2017-11-27T00:06:42.811Z,0.52
2017-11-27T00:06:47.198Z,0.52
2017-11-27T00:06:51.469Z,0.52
2017-11-27T00:06:55.617Z,0.52
2017-11-27T00:07:00.007Z,0.51
2017-11-27T00:07:04.574Z,0.52
2017-11-27T00:07:08.735Z,0.52
2017-11-27T00:07:12.921Z,0.52
2017-11-27T00:07:17.287Z,0.52
2017-11-27T00:07:21.645Z,0.52
2017-11-27T00:07:25.954Z,0.51
2017-11-27T00:07:30.211Z,0.52
2017-11-27T00:07:34.508Z,0.52
2017-11-27T00:07:38.782Z,0.51
2017-11-27T00:07:42.934Z,0.52
2017-11-27T00:07:47.196Z,0.52
2017-11-27T00:07:51.586Z,0.52
2017-11-27T00:07:55.750Z,0.52
2017-11-27T00:08:00.120Z,0.52
2017-11-27T00:08:04.611Z,0.52
2017-11-27T00:08:08.868Z,0.52
2017-11-27T00:08:13.148Z,0.52
2017-11-27T00:08:17.411Z,0.52
2017-11-27T00:08:21.467Z,0.52
2017-11-27T00:08:25.528Z,0.53
2017-11-27T00:08:29.683Z,0.52
2017-11-27T00:08:33.859Z,0.53
2017-11-27T00:08:38.129Z,0.52
2017-11-27T00:08:42.520Z,0.52
2017-11-27T00:08:46.774Z,0.53
2017-11-27T00:08:51.039Z,0.53
2017-11-27T00:08:55.414Z,0.53
2017-11-27T00:08:59.789Z,0.53
2017-11-27T00:09:04.205Z,0.53
2017-11-27T00:09:08.490Z,0.53
2017-11-27T00:09:12.764Z,0.52
2017-11-27T00:09:16.916Z,0.52
2017-11-27T00:09:21.299Z,0.53
2017-11-27T00:09:25.569Z,0.53
2017-11-27T00:09:29.973Z,0.53
2017-11-27T00:09:34.238Z,0.53
2017-11-27T00:09:38.514Z,0.53
2017-11-27T00:09:42.891Z,0.53
2017-11-27T00:09:47.261Z,0.52
2017-11-27T00:09:51.537Z,0.53
2017-11-27T00:09:55.900Z,0.53
2017-11-27T00:10:00.181Z,0.52
2017-11-27T00:10:04.630Z,0.52
2017-11-27T00:10:08.677Z,0.54
2017-11-27T00:10:13.064Z,0.52
2017-11-27T00:10:17.346Z,0.52
2017-11-27T00:10:21.619Z,0.52
2017-11-27T00:10:25.996Z,0.53
2017-11-27T00:10:30.290Z,0.53
2017-11-27T00:10:34.683Z,0.53
2017-11-27T00:10:38.843Z,0.52
2017-11-27T00:10:43.097Z,0.53
2017-11-27T00:10:47.479Z,0.53
2017-11-27T00:10:51.838Z,0.53
2017-11-27T00:10:56.114Z,0.52
2017-11-27T00:11:00.491Z,0.53
2017-11-27T00:11:04.640Z,0.53
2017-11-27T00:11:09.029Z,0.53
2017-11-27T00:11:13.306Z,0.52
2017-11-27T00:11:17.569Z,0.52
2017-11-27T00:11:21.742Z,0.52
2017-11-27T00:11:26.028Z,0.53
2017-11-27T00:11:30.176Z,0.52
2017-11-27T00:11:34.554Z,0.52
2017-11-27T00:11:38.591Z,0.52
2017-11-27T00:11:42.850Z,0.52
2017-11-27T00:11:47.231Z,0.52
2017-11-27T00:11:51.520Z,0.52
2017-11-27T00:11:55.896Z,0.52
2017-11-27T00:12:00.071Z,0.53
2017-11-27T00:12:04.582Z,0.52
2017-11-27T00:12:08.951Z,0.52
2017-11-27T00:12:13.234Z,0.53
2017-11-27T00:12:17.614Z,0.53
2017-11-27T00:12:21.974Z,0.53
2017-11-27T00:12:26.131Z,0.53
2017-11-27T00:12:30.519Z,0.53
2017-11-27T00:12:34.678Z,0.54
2017-11-27T00:12:38.728Z,0.53
2017-11-27T00:12:42.874Z,0.53
2017-11-27T00:12:47.140Z,0.53
2017-11-27T00:12:51.539Z,0.53
2017-11-27T00:12:55.914Z,0.53
2017-11-27T00:13:00.179Z,0.52
2017-11-27T00:13:04.578Z,0.53
2017-11-27T00:13:08.971Z,0.53
2017-11-27T00:13:13.240Z,0.53
2017-11-27T00:13:17.627Z,0.53
2017-11-27T00:13:21.936Z,0.53
2017-11-27T00:13:26.203Z,0.54
2017-11-27T00:13:30.502Z,0.53
2017-11-27T00:13:34.880Z,0.53
2017-11-27T00:13:38.922Z,0.54
2017-11-27T00:13:43.005Z,0.53
2017-11-27T00:13:47.387Z,0.53
2017-11-27T00:13:51.586Z,0.53
2017-11-27T00:13:55.746Z,0.53
2017-11-27T00:13:59.912Z,0.53
2017-11-27T00:14:04.247Z,0.53
2017-11-27T00:14:08.284Z,0.54
2017-11-27T00:14:12.568Z,0.53
2017-11-27T00:14:16.999Z,0.54
2017-11-27T00:14:21.102Z,0.53
2017-11-27T00:14:25.467Z,0.54
2017-11-27T00:14:29.866Z,0.52
2017-11-27T00:14:34.145Z,0.53
2017-11-27T00:14:38.304Z,0.53
2017-11-27T00:14:42.466Z,0.54
2017-11-27T00:14:46.838Z,0.53
2017-11-27T00:14:51.094Z,0.54
2017-11-27T00:14:55.554Z,0.54
2017-11-27T00:14:59.832Z,0.54
2017-11-27T00:15:04.102Z,0.54
2017-11-27T00:15:08.489Z,0.54
2017-11-27T00:15:12.535Z,0.53
2017-11-27T00:15:16.797Z,0.53
2017-11-27T00:15:21.080Z,0.54
2017-11-27T00:15:25.355Z,0.54
2017-11-27T00:15:29.283Z,0.54
2017-11-27T00:15:33.561Z,0.54
2017-11-27T00:15:37.833Z,0.54
2017-11-27T00:15:41.989Z,0.54
2017-11-27T00:15:46.398Z,0.54
2017-11-27T00:15:50.682Z,0.54
2017-11-27T00:15:54.950Z,0.54
2017-11-27T00:15:59.235Z,0.54
2017-11-27T00:16:03.649Z,0.54
2017-11-27T00:16:07.812Z,0.55
2017-11-27T00:16:11.866Z,0.54
2017-11-27T00:16:15.915Z,0.54
2017-11-27T00:16:20.187Z,0.54
2017-11-27T00:16:24.581Z,0.54
2017-11-27T00:16:28.979Z,0.54
2017-11-27T00:16:33.406Z,0.55
2017-11-27T00:16:37.589Z,0.54
2017-11-27T00:16:41.856Z,0.55
2017-11-27T00:16:46.114Z,0.55
2017-11-27T00:16:50.561Z,0.54
2017-11-27T00:16:54.852Z,0.54
2017-11-27T00:16:59.231Z,0.55
2017-11-27T00:17:03.495Z,0.55
2017-11-27T00:17:07.820Z,0.54
2017-11-27T00:17:12.205Z,0.54
2017-11-27T00:17:16.473Z,0.55
2017-11-27T00:17:20.868Z,0.54
2017-11-27T00:17:25.260Z,0.55
2017-11-27T00:17:29.406Z,0.55
2017-11-27T00:17:33.811Z,0.55
2017-11-27T00:17:38.098Z,0.55
2017-11-27T00:17:42.133Z,0.55
2017-11-27T00:17:46.526Z,0.54
2017-11-27T00:17:50.699Z,0.55
2017-11-27T00:17:55.077Z,0.55
2017-11-27T00:17:59.461Z,0.55
2017-11-27T00:18:03.956Z,0.54
2017-11-27T00:18:08.227Z,0.55
2017-11-27T00:18:12.383Z,0.54
2017-11-27T00:18:16.749Z,0.54
2017-11-27T00:18:21.119Z,0.54
2017-11-27T00:18:25.280Z,0.54
2017-11-27T00:18:29.662Z,0.53
2017-11-27T00:18:34.069Z,0.54
2017-11-27T00:18:38.515Z,0.53
2017-11-27T00:18:42.896Z,0.53
2017-11-27T00:18:47.170Z,0.53
2017-11-27T00:18:51.446Z,0.53
2017-11-27T00:18:55.606Z,0.54
2017-11-27T00:18:59.879Z,0.53
2017-11-27T00:19:04.339Z,0.52
2017-11-27T00:19:08.675Z,0.53
2017-11-27T00:19:13.000Z,0.53
2017-11-27T00:19:17.368Z,0.53
2017-11-27T00:19:21.399Z,0.54
2017-11-27T00:19:25.783Z,0.53
2017-11-27T00:19:30.034Z,0.53
2017-11-27T00:19:34.314Z,0.53
2017-11-27T00:19:38.482Z,0.53
2017-11-27T00:19:42.751Z,0.54
2017-11-27T00:19:47.103Z,0.53
2017-11-27T00:19:51.640Z,0.54
2017-11-27T00:19:56.075Z,0.53
2017-11-27T00:20:00.446Z,0.54
2017-11-27T00:20:04.711Z,0.54
2017-11-27T00:20:08.764Z,0.55
2017-11-27T00:20:13.074Z,0.54
2017-11-27T00:20:17.346Z,0.53
2017-11-27T00:20:21.511Z,0.54
2017-11-27T00:20:25.900Z,0.53
2017-11-27T00:20:30.180Z,0.53
2017-11-27T00:20:34.502Z,0.54
2017-11-27T00:20:38.761Z,0.54
2017-11-27T00:20:43.046Z,0.54
2017-11-27T00:20:47.197Z,0.54
2017-11-27T00:20:51.444Z,0.54
2017-11-27T00:20:55.723Z,0.54
2017-11-27T00:21:00.034Z,0.54
2017-11-27T00:21:04.070Z,0.54
2017-11-27T00:21:08.457Z,0.53
2017-11-27T00:21:12.496Z,0.54
2017-11-27T00:21:16.875Z,0.54
2017-11-27T00:21:21.155Z,0.54
2017-11-27T00:21:25.452Z,0.54
2017-11-27T00:21:29.714Z,0.53
2017-11-27T00:21:33.985Z,0.54
2017-11-27T00:21:38.031Z,0.54
2017-11-27T00:21:42.293Z,0.54
2017-11-27T00:21:46.679Z,0.53
2017-11-27T00:21:50.865Z,0.53
2017-11-27T00:21:55.247Z,0.54
2017-11-27T00:21:59.522Z,0.54
2017-11-27T00:22:04.107Z,0.55
2017-11-27T00:22:08.416Z,0.55
2017-11-27T00:22:12.801Z,0.54
2017-11-27T00:22:16.980Z,0.54
2017-11-27T00:22:21.254Z,0.54
2017-11-27T00:22:25.419Z,0.55
2017-11-27T00:22:29.800Z,0.54
2017-11-27T00:22:34.172Z,0.54
2017-11-27T00:22:38.324Z,0.55
2017-11-27T00:22:42.482Z,0.55
2017-11-27T00:22:46.902Z,0.55
2017-11-27T00:22:50.937Z,0.54
2017-11-27T00:22:55.311Z,0.54
2017-11-27T00:22:59.471Z,0.55
2017-11-27T00:23:03.744Z,0.55
2017-11-27T00:23:08.000Z,0.56
2017-11-27T00:23:12.383Z,0.55
2017-11-27T00:23:16.760Z,0.55
2017-11-27T00:23:21.012Z,0.55
2017-11-27T00:23:25.279Z,0.55
2017-11-27T00:23:29.693Z,0.55
2017-11-27T00:23:33.981Z,0.54
2017-11-27T00:23:38.138Z,0.54
2017-11-27T00:23:42.292Z,0.55
2017-11-27T00:23:46.547Z,0.54
2017-11-27T00:23:50.829Z,0.54
2017-11-27T00:23:54.986Z,0.55
2017-11-27T00:23:59.274Z,0.54
2017-11-27T00:24:03.864Z,0.53
2017-11-27T00:24:08.041Z,0.54
2017-11-27T00:24:12.309Z,0.55
2017-11-27T00:24:16.471Z,0.55
2017-11-27T00:24:20.729Z,0.55
2017-11-27T00:24:25.094Z,0.54
2017-11-27T00:24:29.474Z,0.54
2017-11-27T00:24:33.738Z,0.55
2017-11-27T00:24:37.561Z,0.54
2017-11-27T00:24:41.704Z,0.54
2017-11-27T00:24:45.863Z,0.55
2017-11-27T00:24:50.019Z,0.54
2017-11-27T00:24:54.046Z,0.55
2017-11-27T00:24:58.431Z,0.55
2017-11-27T00:25:02.707Z,0.55
2017-11-27T00:25:06.981Z,0.55
2017-11-27T00:25:11.266Z,0.55
2017-11-27T00:25:15.691Z,0.55
2017-11-27T00:25:20.065Z,0.55
2017-11-27T00:25:24.459Z,0.55
2017-11-27T00:25:28.619Z,0.56
2017-11-27T00:25:32.895Z,0.55
2017-11-27T00:25:37.276Z,0.56
2017-11-27T00:25:41.668Z,0.55
2017-11-27T00:25:46.042Z,0.55
2017-11-27T00:25:50.414Z,0.56
2017-11-27T00:25:54.602Z,0.56
2017-11-27T00:25:58.973Z,0.55
2017-11-27T00:26:03.492Z,0.57
2017-11-27T00:26:07.768Z,0.56
2017-11-27T00:26:12.064Z,0.56
2017-11-27T00:26:16.211Z,0.56
2017-11-27T00:26:20.507Z,0.56
2017-11-27T00:26:24.786Z,0.55
2017-11-27T00:26:28.945Z,0.55
2017-11-27T00:26:33.233Z,0.56
2017-11-27T00:26:37.643Z,0.56
2017-11-27T00:26:41.689Z,0.56
2017-11-27T00:26:45.958Z,0.56
2017-11-27T00:26:50.231Z,0.55
2017-11-27T00:26:54.488Z,0.56
2017-11-27T00:26:58.873Z,0.56
2017-11-27T00:27:03.247Z,0.56
2017-11-27T00:27:07.618Z,0.56
2017-11-27T00:27:11.783Z,0.56
2017-11-27T00:27:15.951Z,0.57
2017-11-27T00:27:20.128Z,0.56
2017-11-27T00:27:24.507Z,0.56
2017-11-27T00:27:28.905Z,0.57
2017-11-27T00:27:33.178Z,0.56
2017-11-27T00:27:37.470Z,0.57
2017-11-27T00:27:41.743Z,0.56
2017-11-27T00:27:46.113Z,0.57
2017-11-27T00:27:50.401Z,0.57
2017-11-27T00:27:54.676Z,0.57
2017-11-27T00:27:58.610Z,0.56
2017-11-27T00:28:02.987Z,0.58
2017-11-27T00:28:07.258Z,0.56
2017-11-27T00:28:11.510Z,0.56
2017-11-27T00:28:15.883Z,0.56
2017-11-27T00:28:20.064Z,0.57
2017-11-27T00:28:24.439Z,0.57
2017-11-27T00:28:28.818Z,0.57
2017-11-27T00:28:33.202Z,0.57
2017-11-27T00:28:37.455Z,0.57
2017-11-27T00:28:41.709Z,0.57
2017-11-27T00:28:45.975Z,0.57
2017-11-27T00:28:50.273Z,0.57
2017-11-27T00:28:54.546Z,0.57
2017-11-27T00:28:58.701Z,0.57
2017-11-27T00:29:03.347Z,0.58
2017-11-27T00:29:07.719Z,0.56
2017-11-27T00:29:11.872Z,0.57
2017-11-27T00:29:16.057Z,0.57
2017-11-27T00:29:20.288Z,0.57
2017-11-27T00:29:24.692Z,0.57
2017-11-27T00:29:29.109Z,0.57
2017-11-27T00:29:33.507Z,0.57
2017-11-27T00:29:37.917Z,0.58
2017-11-27T00:29:42.222Z,0.57
2017-11-27T00:29:46.590Z,0.57
2017-11-27T00:29:50.970Z,0.57
2017-11-27T00:29:55.122Z,0.56
2017-11-27T00:29:59.495Z,0.57
2017-11-27T00:30:04.255Z,0.56
2017-11-27T00:30:08.543Z,0.56
2017-11-27T00:30:12.835Z,0.58
2017-11-27T00:30:17.116Z,0.57
2017-11-27T00:30:21.314Z,0.56
2017-11-27T00:30:25.711Z,0.57
2017-11-27T00:30:29.847Z,0.57
2017-11-27T00:30:34.128Z,0.57
2017-11-27T00:30:38.405Z,0.56
2017-11-27T00:30:42.791Z,0.57
2017-11-27T00:30:47.180Z,0.56
2017-11-27T00:30:51.485Z,0.56
2017-11-27T00:30:55.845Z,0.57
2017-11-27T00:31:00.030Z,0.57
2017-11-27T00:31:04.185Z,0.57
2017-11-27T00:31:08.446Z,0.57
2017-11-27T00:31:12.619Z,0.57
2017-11-27T00:31:17.003Z,0.57
2017-11-27T00:31:21.147Z,0.57
2017-11-27T00:31:25.517Z,0.57
2017-11-27T00:31:29.830Z,0.56
2017-11-27T00:31:34.098Z,0.57
2017-11-27T00:31:38.399Z,0.57
2017-11-27T00:31:42.681Z,0.56
2017-11-27T00:31:46.844Z,0.56
2017-11-27T00:31:51.020Z,0.57
2017-11-27T00:31:55.396Z,0.56
2017-11-27T00:31:59.770Z,0.57
2017-11-27T00:32:04.144Z,0.58
2017-11-27T00:32:08.194Z,0.56
2017-11-27T00:32:12.465Z,0.57
2017-11-27T00:32:16.741Z,0.57
2017-11-27T00:32:21.066Z,0.56
2017-11-27T00:32:25.332Z,0.57
2017-11-27T00:32:29.608Z,0.57
2017-11-27T00:32:33.785Z,0.57
2017-11-27T00:32:38.073Z,0.57
2017-11-27T00:32:42.233Z,0.57
2017-11-27T00:32:46.624Z,0.57
2017-11-27T00:32:50.886Z,0.57
2017-11-27T00:32:55.054Z,0.57
2017-11-27T00:32:59.340Z,0.56
2017-11-27T00:33:03.704Z,0.57
2017-11-27T00:33:08.097Z,0.57
2017-11-27T00:33:12.526Z,0.58
2017-11-27T00:33:16.689Z,0.58
2017-11-27T00:33:20.958Z,0.57
2017-11-27T00:33:25.120Z,0.57
2017-11-27T00:33:29.492Z,0.57
2017-11-27T00:33:33.750Z,0.57
2017-11-27T00:33:37.912Z,0.57
2017-11-27T00:33:42.094Z,0.57
2017-11-27T00:33:46.266Z,0.57
2017-11-27T00:33:50.625Z,0.57
2017-11-27T00:33:55.017Z,0.57
2017-11-27T00:33:59.381Z,0.57
2017-11-27T00:34:04.062Z,0.57
2017-11-27T00:34:08.475Z,0.58
2017-11-27T00:34:12.642Z,0.58
2017-11-27T00:34:17.028Z,0.58
2017-11-27T00:34:21.419Z,0.59
2017-11-27T00:34:25.693Z,0.58
2017-11-27T00:34:29.965Z,0.58
2017-11-27T00:34:34.453Z,0.57
2017-11-27T00:34:38.481Z,0.58
2017-11-27T00:34:42.749Z,0.58
2017-11-27T00:34:47.153Z,0.57
2017-11-27T00:34:51.424Z,0.58
2017-11-27T00:34:55.708Z,0.57
2017-11-27T00:34:59.759Z,0.58
2017-11-27T00:35:03.861Z,0.58
2017-11-27T00:35:08.025Z,0.58
2017-11-27T00:35:12.411Z,0.57
2017-11-27T00:35:16.575Z,0.58
2017-11-27T00:35:20.734Z,0.57
2017-11-27T00:35:25.143Z,0.58
2017-11-27T00:35:29.407Z,0.58
2017-11-27T00:35:33.562Z,0.58
2017-11-27T00:35:37.746Z,0.58
2017-11-27T00:35:42.006Z,0.57
2017-11-27T00:35:46.263Z,0.58
2017-11-27T00:35:50.535Z,0.57
2017-11-27T00:35:54.791Z,0.58
2017-11-27T00:35:59.058Z,0.58
2017-11-27T00:36:03.433Z,0.57
2017-11-27T00:36:07.609Z,0.57
2017-11-27T00:36:11.758Z,0.57
2017-11-27T00:36:16.148Z,0.57
2017-11-27T00:36:20.404Z,0.57
2017-11-27T00:36:24.790Z,0.57
2017-11-27T00:36:29.061Z,0.57
2017-11-27T00:36:33.325Z,0.57
2017-11-27T00:36:37.604Z,0.57
2017-11-27T00:36:41.785Z,0.57
2017-11-27T00:36:46.080Z,0.57
2017-11-27T00:36:50.357Z,0.56
2017-11-27T00:36:54.742Z,0.56
2017-11-27T00:36:59.121Z,0.57
2017-11-27T00:37:03.546Z,0.58
2017-11-27T00:37:07.594Z,0.56
2017-11-27T00:37:11.879Z,0.57
2017-11-27T00:37:16.142Z,0.57
2017-11-27T00:37:20.512Z,0.57
2017-11-27T00:37:24.789Z,0.57
2017-11-27T00:37:29.066Z,0.56
2017-11-27T00:37:33.479Z,0.57
2017-11-27T00:37:37.894Z,0.56
2017-11-27T00:37:42.206Z,0.57
2017-11-27T00:37:46.142Z,0.57
2017-11-27T00:37:50.326Z,0.57
2017-11-27T00:37:54.606Z,0.57
2017-11-27T00:37:58.999Z,0.57
2017-11-27T00:38:03.433Z,0.57
2017-11-27T00:38:07.595Z,0.57
2017-11-27T00:38:11.872Z,0.57
2017-11-27T00:38:16.291Z,0.56
2017-11-27T00:38:20.457Z,0.57
2017-11-27T00:38:24.857Z,0.57
2017-11-27T00:38:28.987Z,0.57
2017-11-27T00:38:33.144Z,0.57
2017-11-27T00:38:37.539Z,0.57
2017-11-27T00:38:41.711Z,0.57
2017-11-27T00:38:45.980Z,0.57
2017-11-27T00:38:50.162Z,0.58
2017-11-27T00:38:54.438Z,0.57
2017-11-27T00:38:58.709Z,0.58
2017-11-27T00:39:03.104Z,0.57
2017-11-27T00:39:07.253Z,0.58
2017-11-27T00:39:11.526Z,0.58
2017-11-27T00:39:15.802Z,0.58
2017-11-27T00:39:19.977Z,0.58
2017-11-27T00:39:24.362Z,0.59
2017-11-27T00:39:28.767Z,0.58
2017-11-27T00:39:33.044Z,0.59
2017-11-27T00:39:37.305Z,0.59
2017-11-27T00:39:41.358Z,0.58
2017-11-27T00:39:45.604Z,0.58
2017-11-27T00:39:49.760Z,0.58
2017-11-27T00:39:54.035Z,0.59
2017-11-27T00:39:58.445Z,0.58
2017-11-27T00:40:02.719Z,0.58
2017-11-27T00:40:06.993Z,0.59
2017-11-27T00:40:11.040Z,0.59
2017-11-27T00:40:15.311Z,0.58
2017-11-27T00:40:19.694Z,0.59
2017-11-27T00:40:23.968Z,0.58
2017-11-27T00:40:28.135Z,0.59
2017-11-27T00:40:32.449Z,0.6
2017-11-27T00:40:36.747Z,0.6
2017-11-27T00:40:41.021Z,0.6
2017-11-27T00:40:45.315Z,0.59
2017-11-27T00:40:49.474Z,0.59
2017-11-27T00:40:53.851Z,0.59
2017-11-27T00:40:58.232Z,0.6
2017-11-27T00:41:02.855Z,0.59
2017-11-27T00:41:07.118Z,0.58
2017-11-27T00:41:11.182Z,0.6
2017-11-27T00:41:15.256Z,0.59
2017-11-27T00:41:19.413Z,0.59
2017-11-27T00:41:23.464Z,0.59
2017-11-27T00:41:27.743Z,0.59
2017-11-27T00:41:32.003Z,0.59
2017-11-27T00:41:36.375Z,0.59
2017-11-27T00:41:40.537Z,0.59
2017-11-27T00:41:44.816Z,0.59
2017-11-27T00:41:49.200Z,0.59
2017-11-27T00:41:53.583Z,0.59
2017-11-27T00:41:57.867Z,0.59
2017-11-27T00:42:02.247Z,0.59
2017-11-27T00:42:06.641Z,0.6
2017-11-27T00:42:11.030Z,0.59
2017-11-27T00:42:15.202Z,0.59
2017-11-27T00:42:19.594Z,0.59
2017-11-27T00:42:23.913Z,0.59
2017-11-27T00:42:28.185Z,0.59
2017-11-27T00:42:32.463Z,0.59
2017-11-27T00:42:36.734Z,0.6
2017-11-27T00:42:40.908Z,0.58
2017-11-27T00:42:45.206Z,0.59
2017-11-27T00:42:49.471Z,0.6
2017-11-27T00:42:53.856Z,0.59
2017-11-27T00:42:58.247Z,0.59
2017-11-27T00:43:02.675Z,0.6
2017-11-27T00:43:06.741Z,0.6
2017-11-27T00:43:11.027Z,0.6
2017-11-27T00:43:15.303Z,0.59
2017-11-27T00:43:19.367Z,0.6
2017-11-27T00:43:23.625Z,0.59
2017-11-27T00:43:27.895Z,0.59
2017-11-27T00:43:32.278Z,0.59
2017-11-27T00:43:36.691Z,0.59
2017-11-27T00:43:40.854Z,0.6
2017-11-27T00:43:45.226Z,0.6
2017-11-27T00:43:49.601Z,0.59
2017-11-27T00:43:53.985Z,0.59
2017-11-27T00:43:58.375Z,0.6
2017-11-27T00:44:02.640Z,0.6
2017-11-27T00:44:07.010Z,0.6
2017-11-27T00:44:11.167Z,0.61
2017-11-27T00:44:15.565Z,0.6
2017-11-27T00:44:19.610Z,0.6
2017-11-27T00:44:24.003Z,0.6
2017-11-27T00:44:28.160Z,0.61
2017-11-27T00:44:32.429Z,0.61
2017-11-27T00:44:36.708Z,0.61
2017-11-27T00:44:40.890Z,0.6
2017-11-27T00:44:45.254Z,0.6
2017-11-27T00:44:49.631Z,0.6
2017-11-27T00:44:54.036Z,0.61
2017-11-27T00:44:58.400Z,0.6
2017-11-27T00:45:02.571Z,0.61
2017-11-27T00:45:06.730Z,0.61
2017-11-27T00:45:10.986Z,0.61
2017-11-27T00:45:15.274Z,0.61
2017-11-27T00:45:19.443Z,0.61
2017-11-27T00:45:23.619Z,0.61
2017-11-27T00:45:27.883Z,0.61
2017-11-27T00:45:32.059Z,0.61
2017-11-27T00:45:36.366Z,0.61
2017-11-27T00:45:40.514Z,0.61
2017-11-27T00:45:44.915Z,0.61
2017-11-27T00:45:49.304Z,0.62
2017-11-27T00:45:53.664Z,0.62
2017-11-27T00:45:57.947Z,0.61
2017-11-27T00:46:02.221Z,0.62
2017-11-27T00:46:06.360Z,0.61
2017-11-27T00:46:10.525Z,0.62
2017-11-27T00:46:14.683Z,0.62
2017-11-27T00:46:18.941Z,0.62
2017-11-27T00:46:23.346Z,0.61
2017-11-27T00:46:27.519Z,0.62
2017-11-27T00:46:31.786Z,0.61
2017-11-27T00:46:36.087Z,0.62
2017-11-27T00:46:40.021Z,0.62
2017-11-27T00:46:44.413Z,0.63
2017-11-27T00:46:48.696Z,0.62
2017-11-27T00:46:53.069Z,0.62
2017-11-27T00:46:57.224Z,0.63
2017-11-27T00:47:01.490Z,0.63
2017-11-27T00:47:05.808Z,0.62
2017-11-27T00:47:10.181Z,0.63
2017-11-27T00:47:14.341Z,0.63
2017-11-27T00:47:18.606Z,0.63
2017-11-27T00:47:22.874Z,0.63
2017-11-27T00:47:27.270Z,0.63
2017-11-27T00:47:31.540Z,0.63
2017-11-27T00:47:35.955Z,0.62
2017-11-27T00:47:39.813Z,0.62
2017-11-27T00:47:44.065Z,0.62
2017-11-27T00:47:48.117Z,0.62
2017-11-27T00:47:52.277Z,0.63
2017-11-27T00:47:56.646Z,0.63
2017-11-27T00:48:00.922Z,0.62
2017-11-27T00:48:05.339Z,0.63
2017-11-27T00:48:09.623Z,0.62
2017-11-27T00:48:13.781Z,0.63
2017-11-27T00:48:18.181Z,0.63
2017-11-27T00:48:22.445Z,0.63
2017-11-27T00:48:26.709Z,0.63
2017-11-27T00:48:30.871Z,0.63
2017-11-27T00:48:35.135Z,0.64
2017-11-27T00:48:39.164Z,0.64
2017-11-27T00:48:43.564Z,0.63
2017-11-27T00:48:47.807Z,0.63
2017-11-27T00:48:52.062Z,0.63
2017-11-27T00:48:56.330Z,0.63
2017-11-27T00:49:00.592Z,0.64
2017-11-27T00:49:04.969Z,0.63
2017-11-27T00:49:09.372Z,0.64
2017-11-27T00:49:13.685Z,0.64
2017-11-27T00:49:17.941Z,0.65
2017-11-27T00:49:21.990Z,0.65
2017-11-27T00:49:26.393Z,0.65
2017-11-27T00:49:30.779Z,0.64
2017-11-27T00:49:35.163Z,0.63
2017-11-27T00:49:39.106Z,0.63
2017-11-27T00:49:43.480Z,0.64
2017-11-27T00:49:47.639Z,0.65
2017-11-27T00:49:52.063Z,0.64
2017-11-27T00:49:56.116Z,0.65
2017-11-27T00:50:00.486Z,0.65
2017-11-27T00:50:04.755Z,0.64
2017-11-27T00:50:09.128Z,0.64
2017-11-27T00:50:13.494Z,0.65
2017-11-27T00:50:17.760Z,0.65
2017-11-27T00:50:22.029Z,0.64
2017-11-27T00:50:26.419Z,0.65
2017-11-27T00:50:30.717Z,0.64
2017-11-27T00:50:35.117Z,0.63
2017-11-27T00:50:39.286Z,0.64
2017-11-27T00:50:43.448Z,0.63
2017-11-27T00:50:47.824Z,0.63
2017-11-27T00:50:52.089Z,0.64
2017-11-27T00:50:56.347Z,0.64
2017-11-27T00:51:00.740Z,0.63
2017-11-27T00:51:04.897Z,0.64
2017-11-27T00:51:09.288Z,0.64
2017-11-27T00:51:13.557Z,0.63
2017-11-27T00:51:17.609Z,0.64
2017-11-27T00:51:21.899Z,0.63
2017-11-27T00:51:26.060Z,0.64
2017-11-27T00:51:30.225Z,0.64
2017-11-27T00:51:34.628Z,0.64
2017-11-27T00:51:38.779Z,0.63
2017-11-27T00:51:43.030Z,0.63
2017-11-27T00:51:47.091Z,0.63
2017-11-27T00:51:51.245Z,0.64
2017-11-27T00:51:55.619Z,0.63
2017-11-27T00:51:59.768Z,0.63
2017-11-27T00:52:04.134Z,0.64
2017-11-27T00:52:08.398Z,0.63
2017-11-27T00:52:12.684Z,0.63
2017-11-27T00:52:16.876Z,0.63
2017-11-27T00:52:21.268Z,0.63
2017-11-27T00:52:25.557Z,0.63
2017-11-27T00:52:29.726Z,0.63
2017-11-27T00:52:33.993Z,0.62
2017-11-27T00:52:38.169Z,0.63
2017-11-27T00:52:42.450Z,0.62
2017-11-27T00:52:46.712Z,0.63
2017-11-27T00:52:51.095Z,0.63
2017-11-27T00:52:55.408Z,0.64
2017-11-27T00:52:59.588Z,0.64
2017-11-27T00:53:03.752Z,0.63
2017-11-27T00:53:07.922Z,0.63
2017-11-27T00:53:12.321Z,0.63
2017-11-27T00:53:16.596Z,0.63
2017-11-27T00:53:20.874Z,0.64
2017-11-27T00:53:25.166Z,0.63
2017-11-27T00:53:29.546Z,0.62
2017-11-27T00:53:33.818Z,0.63
2017-11-27T00:53:38.075Z,0.62
2017-11-27T00:53:42.364Z,0.62
2017-11-27T00:53:46.634Z,0.63
2017-11-27T00:53:50.906Z,0.63
2017-11-27T00:53:55.180Z,0.63
2017-11-27T00:53:59.359Z,0.63
2017-11-27T00:54:03.929Z,0.63
2017-11-27T00:54:08.315Z,0.63
2017-11-27T00:54:12.589Z,0.63
2017-11-27T00:54:16.746Z,0.63
2017-11-27T00:54:21.134Z,0.62
2017-11-27T00:54:25.175Z,0.63
2017-11-27T00:54:29.546Z,0.62
2017-11-27T00:54:33.941Z,0.62
2017-11-27T00:54:38.019Z,0.63
2017-11-27T00:54:42.391Z,0.62
2017-11-27T00:54:46.682Z,0.62
2017-11-27T00:54:51.085Z,0.63
2017-11-27T00:54:55.468Z,0.63
2017-11-27T00:54:59.855Z,0.63
2017-11-27T00:55:04.027Z,0.62
2017-11-27T00:55:08.298Z,0.63
2017-11-27T00:55:12.679Z,0.62
2017-11-27T00:55:16.950Z,0.63
2017-11-27T00:55:21.211Z,0.62
2017-11-27T00:55:25.365Z,0.62
2017-11-27T00:55:29.677Z,0.62
2017-11-27T00:55:33.937Z,0.63
2017-11-27T00:55:38.203Z,0.62
2017-11-27T00:55:42.632Z,0.63
2017-11-27T00:55:46.772Z,0.63
2017-11-27T00:55:51.166Z,0.62
2017-11-27T00:55:55.431Z,0.63
2017-11-27T00:55:59.884Z,0.62
2017-11-27T00:56:04.156Z,0.62
2017-11-27T00:56:08.440Z,0.62
2017-11-27T00:56:12.748Z,0.62
2017-11-27T00:56:16.887Z,0.63
2017-11-27T00:56:21.149Z,0.61
2017-11-27T00:56:25.416Z,0.62
2017-11-27T00:56:29.681Z,0.62
2017-11-27T00:56:33.949Z,0.63
2017-11-27T00:56:38.357Z,0.63
2017-11-27T00:56:42.625Z,0.63
2017-11-27T00:56:47.017Z,0.62
2017-11-27T00:56:51.416Z,0.63
2017-11-27T00:56:55.789Z,0.62
2017-11-27T00:57:00.178Z,0.62
2017-11-27T00:57:04.496Z,0.62
2017-11-27T00:57:08.890Z,0.6
2017-11-27T00:57:13.282Z,0.62
2017-11-27T00:57:17.683Z,0.62
2017-11-27T00:57:21.935Z,0.62
2017-11-27T00:57:26.314Z,0.62
2017-11-27T00:57:30.713Z,0.61
2017-11-27T00:57:34.863Z,0.61